メインページ
METAR-TAF:

METAR-TAF

空港 :

カイロ国際空港

カイロ, エジプト

緯度: 30-08N, 経度: 031-24E, 海抜: 64m

現時点の気象観測

当レポートは17分前の03:00(UTC)に作成
の風 7kt
気温 24°C
湿度 83%
気圧 1013 hPa
視程: 2000m

METAR: HECA 250300Z 35007KT 2000 BR NSC 24/21 Q1013 NOSIG

時間: 05:17 (03:17 UTC)

予報

当レポートは4時間17分前の23:00(UTC)に作成
予報は25日の 00時(UTC)から 26日の 06時(UTC)まで有効
北/北東の風 8kt
視程: 6000m
25日の 01時(UTC)から 25日の 07時(UTC)まで一時的に
変向風 3kt
間 25から00 UTC徐々に
の風 10kt
視程10km以上
高度2500ftの雲はほとんどない

TAF: HECA 242300Z 2500/2606 03008KT 6000 NSC TEMPO 2501/2507 VRB03KT 4000BR BECMG 25008/2510 35010KT 9999 FEW025

4,000以上の空港の気象観測と天気予報(METAR報とTAF報)

利用可能な観測所は地図上に黄色い丸と赤い丸で示す。

丸の上にカーソルを重ねると観測所名を参照できる。

次にクリックすると気象観測と天気予報を参照できる。

マップの切り替え:黒色「×」印の緑ボタンをクリックして拡大、「-」印の緑ボタンをクリックして縮小、緑色の三角印をクリックして隣りの地図に切り替え


METAR-TAF: